Keiyo Maru No.15 — JD4282 — position and weather

sailwx.info

Track history (hours):
 
Tides and Currents Weather Stations Pressure Air Temp Water Temp Dewpoint Dewpoint Depression Visibility Wind Speed Wind Dir Waves Ship Positions

Keiyo Maru No.15

Last reported at 2018-Jan-22 00:00 UTC. Time now 2018-Jan-22 00:17 UTC.
Position N 33°55' E 130°51'.

Length 64 m; draft 4 m.

Type: Tanker. MMSI: 431010346.

Date/timePositionNaut miles runAvg speedWind from/ knotsBaromVisibWave heightAir tempDewpointWater temp
2018-Jan-22 00:00N 33°55' E 130°51'0 0.0
2018-Jan-21 23:30N 33°55' E 130°51'0 0.0
2018-Jan-21 23:00N 33°55' E 130°51'0 0.6
2018-Jan-21 22:30N 33°54' E 130°51'0 0.0
2018-Jan-21 22:00N 33°54' E 130°51'0 0.0
2018-Jan-21 21:30N 33°54' E 130°51'0 0.1
2018-Jan-21 21:00N 33°54' E 130°51'0 0.1
2018-Jan-21 20:30N 33°54' E 130°51'0 0.0
2018-Jan-21 20:00N 33°54' E 130°51'0 0.0
2018-Jan-21 19:30N 33°54' E 130°51'0 0.0
2018-Jan-21 19:00N 33°54' E 130°51'0 0.0
2018-Jan-21 18:30N 33°54' E 130°51'0 0.0
2018-Jan-21 18:00N 33°54' E 130°51'0 0.0
2018-Jan-21 17:30N 33°54' E 130°51'0 0.0
2018-Jan-21 17:00N 33°54' E 130°51'0 0.0
2018-Jan-21 16:30N 33°54' E 130°51'0 0.0
2018-Jan-21 16:00N 33°54' E 130°51'0 0.0
2018-Jan-21 15:30N 33°54' E 130°51'0 0.0
2018-Jan-21 15:00N 33°54' E 130°51'0 0.0
2018-Jan-21 14:30N 33°54' E 130°51'0 0.0
2018-Jan-21 14:00N 33°54' E 130°51'0 0.0
2018-Jan-21 13:30N 33°54' E 130°51'0 0.0
2018-Jan-21 13:00N 33°54' E 130°51'0 0.0
2018-Jan-21 12:30N 33°54' E 130°51'0 0.0
2018-Jan-21 12:00N 33°54' E 130°51'0 0.0
2018-Jan-21 11:30N 33°54' E 130°51'0 0.0
2018-Jan-21 11:00N 33°54' E 130°51'0 0.0
2018-Jan-21 10:30N 33°54' E 130°51'0 0.0
2018-Jan-21 10:00N 33°54' E 130°51'0 0.0
2018-Jan-21 09:30N 33°54' E 130°51'0 0.0
2018-Jan-21 09:00N 33°54' E 130°51'0 0.0
2018-Jan-21 08:30N 33°54' E 130°51'0 0.0
2018-Jan-21 08:00N 33°54' E 130°51'0 0.0
2018-Jan-21 07:30N 33°54' E 130°51'0 0.0
2018-Jan-21 07:00N 33°54' E 130°51'0 0.0
2018-Jan-21 06:30N 33°54' E 130°51'0 0.0
2018-Jan-21 06:00N 33°54' E 130°51'0 0.1
2018-Jan-21 05:31N 33°54' E 130°51'0 0.8
2018-Jan-21 05:00N 33°55' E 130°51'0 0.0
2018-Jan-21 04:30N 33°55' E 130°51'0 0.0
2018-Jan-21 04:00N 33°55' E 130°51'0 0.0
2018-Jan-21 03:30N 33°55' E 130°51'0 0.0
2018-Jan-21 03:00N 33°55' E 130°51'0 0.0
2018-Jan-21 02:30N 33°55' E 130°51'0 0.0
2018-Jan-21 02:00N 33°55' E 130°51'2 4.2
2018-Jan-21 01:30N 33°55' E 130°54'611.3
2018-Jan-21 01:00N 33°59' E 130°59'611.6
2018-Jan-21 00:30N 33°57' E 131°06'612.2
2018-Jan-21 00:00N 33°53' E 131°11'612.1
2018-Jan-20 23:30N 33°51' E 131°18'612.0
2018-Jan-20 23:00N 33°50' E 131°25'612.0
2018-Jan-20 22:30N 33°48' E 131°33'611.9
2018-Jan-20 22:00N 33°47' E 131°39'611.5
2018-Jan-20 21:29N 33°46' E 131°47'2011.3
2018-Jan-20 19:40N 33°43' E 132°11'1512.4
2018-Jan-20 18:28N 33°48' E 132°28'612.4
2018-Jan-20 18:00N 33°51' E 132°34'612.6
2018-Jan-20 17:30N 33°56' E 132°39'8810.2
2018-Jan-20 08:52N 34°22' E 134°21'411.0
2018-Jan-20 08:30N 34°21' E 134°25'611.1
2018-Jan-20 08:00N 34°19' E 134°31'711.0
2018-Jan-20 07:20N 34°15' E 134°39'4 9.5
2018-Jan-20 06:52N 34°12' E 134°42'4 9.9
2018-Jan-20 06:30N 34°11' E 134°47'611.4
2018-Jan-20 06:00N 34°12' E 134°53'611.2
2018-Jan-20 05:30N 34°13' E 134°60'510.8
2018-Jan-20 05:00N 34°14' E 135°06'1 1.5
2018-Jan-20 04:30N 34°15' E 135°07'0 0.0
2018-Jan-20 04:00N 34°15' E 135°07'0 0.0
2018-Jan-20 03:30N 34°15' E 135°07'0 0.0
2018-Jan-20 03:00N 34°15' E 135°07'0 0.0
2018-Jan-20 02:30N 34°15' E 135°07'0 0.0
2018-Jan-20 02:00N 34°15' E 135°07'0 0.0
2018-Jan-20 01:30N 34°15' E 135°07'0 0.0
2018-Jan-20 01:00N 34°15' E 135°07'0 0.0
2018-Jan-20 00:30N 34°15' E 135°07'0 0.0
2018-Jan-20 00:00N 34°15' E 135°07'0 0.0
2018-Jan-19 23:30N 34°15' E 135°07'0 0.0
2018-Jan-19 23:00N 34°15' E 135°07'0 0.0
2018-Jan-19 22:30N 34°15' E 135°07'0 0.0
2018-Jan-19 22:01N 34°15' E 135°07'2 3.0
2018-Jan-19 21:30N 34°15' E 135°05'0 0.2
2018-Jan-19 21:00N 34°15' E 135°05'0 0.0
2018-Jan-19 20:30N 34°15' E 135°05'0 0.0
2018-Jan-19 20:00N 34°15' E 135°05'0 0.0
2018-Jan-19 19:31N 34°15' E 135°05'0 0.0
2018-Jan-19 19:00N 34°15' E 135°05'0 0.0
2018-Jan-19 18:30N 34°15' E 135°05'0 0.0
2018-Jan-19 18:00N 34°15' E 135°05'0 0.0
2018-Jan-19 17:30N 34°15' E 135°05'0 0.0
2018-Jan-19 17:00N 34°15' E 135°05'1 2.6
2018-Jan-19 16:30N 34°14' E 135°05'510.6
2018-Jan-19 16:00N 34°09' E 135°02'510.4
2018-Jan-19 15:30N 34°04' E 135°02'510.7
2018-Jan-19 15:00N 33°58' E 135°02'610.5
2018-Jan-19 14:27N 33°52' E 135°02'179 8.9
2018-Jan-18 18:13N 34°34' E 138°33'510.8
2018-Jan-18 17:47N 34°35' E 138°38'310.5
2018-Jan-18 17:30N 34°35' E 138°42'610.4
2018-Jan-18 16:57N 34°35' E 138°49'5 9.6
2018-Jan-18 16:26N 34°35' E 138°55'4 9.1
2018-Jan-18 15:57N 34°37' E 138°60'4 9.5
2018-Jan-18 15:30N 34°41' E 139°02'610.2
2018-Jan-18 14:54N 34°46' E 139°06'810.0
2018-Jan-18 14:08N 34°52' E 139°12'210.9
2018-Jan-18 14:00N 34°53' E 139°13'710.7
2018-Jan-18 13:23N 34°57' E 139°20'410.1
2018-Jan-18 13:00N 34°59' E 139°24'5 9.7
2018-Jan-18 12:30N 35°01' E 139°29'5 9.8
2018-Jan-18 12:00N 35°04' E 139°34'510.5
2018-Jan-18 11:30N 35°06' E 139°40'510.6
2018-Jan-18 11:00N 35°10' E 139°44'611.2
2018-Jan-18 10:30N 35°15' E 139°46'611.9
2018-Jan-18 10:00N 35°21' E 139°42'510.4
2018-Jan-18 09:31N 35°25' E 139°45'5 9.8
2018-Jan-18 09:01N 35°24' E 139°51'0 0.0
2018-Jan-18 08:30N 35°24' E 139°51'0 0.1
2018-Jan-18 08:00N 35°24' E 139°51'0 0.0
2018-Jan-18 07:30N 35°24' E 139°51'0 0.0
2018-Jan-18 07:00N 35°24' E 139°51'0 0.0
2018-Jan-18 06:30N 35°24' E 139°51'0 0.0
2018-Jan-18 06:00N 35°24' E 139°51'0 0.0
2018-Jan-18 05:30N 35°24' E 139°51'0 0.0
2018-Jan-18 05:00N 35°24' E 139°51'0 0.0
2018-Jan-18 04:30N 35°24' E 139°51'0 0.1
2018-Jan-18 04:00N 35°24' E 139°51'0 0.0
2018-Jan-18 03:30N 35°24' E 139°51'0 0.0
2018-Jan-18 03:01N 35°24' E 139°51'0 0.0
2018-Jan-18 02:31N 35°24' E 139°51'0 0.1
2018-Jan-18 02:00N 35°24' E 139°51'0 0.0
2018-Jan-18 01:30N 35°24' E 139°51'0 0.0
2018-Jan-18 01:00N 35°24' E 139°51'0 0.0
2018-Jan-18 00:00N 35°24' E 139°51'0 0.0
2018-Jan-17 23:57N 35°24' E 139°51'  
2018-Jan-12 14:37N 34°01' E 132°46'110.1
2018-Jan-12 14:30N 34°00' E 132°45'5 9.9
2018-Jan-12 14:00N 33°56' E 132°41'5 9.9
2018-Jan-12 13:29N 33°53' E 132°37'4010.8
2018-Jan-12 09:48N 33°28' E 131°60'411.2
2018-Jan-12 09:28N 33°26' E 131°56'511.4
2018-Jan-12 09:00N 33°23' E 131°51'611.3
2018-Jan-12 08:30N 33°20' E 131°45'510.8
2018-Jan-12 08:00N 33°17' E 131°39'  
Track history (hours):
 
Tides and Currents Weather Stations Pressure Air Temp Water Temp Dewpoint Dewpoint Depression Visibility Wind Speed Wind Dir Waves Ship Positions

Keiyo Maru No.15

Last reported at 2018-Jan-22 00:00 UTC. Time now 2018-Jan-22 00:17 UTC.
Position N 33°55' E 130°51'.

Length 64 m; draft 4 m.

Type: Tanker. MMSI: 431010346.

Date/timePositionNaut miles runAvg speedWind from/ knotsBaromVisibWave heightAir tempDewpointWater temp
2018-Jan-22 00:00N 33°55' E 130°51'0 0.0
2018-Jan-21 23:30N 33°55' E 130°51'0 0.0
2018-Jan-21 23:00N 33°55' E 130°51'0 0.6
2018-Jan-21 22:30N 33°54' E 130°51'0 0.0
2018-Jan-21 22:00N 33°54' E 130°51'0 0.0
2018-Jan-21 21:30N 33°54' E 130°51'0 0.1
2018-Jan-21 21:00N 33°54' E 130°51'0 0.1
2018-Jan-21 20:30N 33°54' E 130°51'0 0.0
2018-Jan-21 20:00N 33°54' E 130°51'0 0.0
2018-Jan-21 19:30N 33°54' E 130°51'0 0.0
2018-Jan-21 19:00N 33°54' E 130°51'0 0.0
2018-Jan-21 18:30N 33°54' E 130°51'0 0.0
2018-Jan-21 18:00N 33°54' E 130°51'0 0.0
2018-Jan-21 17:30N 33°54' E 130°51'0 0.0
2018-Jan-21 17:00N 33°54' E 130°51'0 0.0
2018-Jan-21 16:30N 33°54' E 130°51'0 0.0
2018-Jan-21 16:00N 33°54' E 130°51'0 0.0
2018-Jan-21 15:30N 33°54' E 130°51'0 0.0
2018-Jan-21 15:00N 33°54' E 130°51'0 0.0
2018-Jan-21 14:30N 33°54' E 130°51'0 0.0
2018-Jan-21 14:00N 33°54' E 130°51'0 0.0
2018-Jan-21 13:30N 33°54' E 130°51'0 0.0
2018-Jan-21 13:00N 33°54' E 130°51'0 0.0
2018-Jan-21 12:30N 33°54' E 130°51'0 0.0
2018-Jan-21 12:00N 33°54' E 130°51'0 0.0
2018-Jan-21 11:30N 33°54' E 130°51'0 0.0
2018-Jan-21 11:00N 33°54' E 130°51'0 0.0
2018-Jan-21 10:30N 33°54' E 130°51'0 0.0
2018-Jan-21 10:00N 33°54' E 130°51'0 0.0
2018-Jan-21 09:30N 33°54' E 130°51'0 0.0
2018-Jan-21 09:00N 33°54' E 130°51'0 0.0
2018-Jan-21 08:30N 33°54' E 130°51'0 0.0
2018-Jan-21 08:00N 33°54' E 130°51'0 0.0
2018-Jan-21 07:30N 33°54' E 130°51'0 0.0
2018-Jan-21 07:00N 33°54' E 130°51'0 0.0
2018-Jan-21 06:30N 33°54' E 130°51'0 0.0
2018-Jan-21 06:00N 33°54' E 130°51'0 0.1
2018-Jan-21 05:31N 33°54' E 130°51'0 0.8
2018-Jan-21 05:00N 33°55' E 130°51'0 0.0
2018-Jan-21 04:30N 33°55' E 130°51'0 0.0
2018-Jan-21 04:00N 33°55' E 130°51'0 0.0
2018-Jan-21 03:30N 33°55' E 130°51'0 0.0
2018-Jan-21 03:00N 33°55' E 130°51'0 0.0
2018-Jan-21 02:30N 33°55' E 130°51'0 0.0
2018-Jan-21 02:00N 33°55' E 130°51'2 4.2
2018-Jan-21 01:30N 33°55' E 130°54'611.3
2018-Jan-21 01:00N 33°59' E 130°59'611.6
2018-Jan-21 00:30N 33°57' E 131°06'612.2
2018-Jan-21 00:00N 33°53' E 131°11'612.1
2018-Jan-20 23:30N 33°51' E 131°18'612.0
2018-Jan-20 23:00N 33°50' E 131°25'612.0
2018-Jan-20 22:30N 33°48' E 131°33'611.9
2018-Jan-20 22:00N 33°47' E 131°39'611.5
2018-Jan-20 21:29N 33°46' E 131°47'2011.3
2018-Jan-20 19:40N 33°43' E 132°11'1512.4
2018-Jan-20 18:28N 33°48' E 132°28'612.4
2018-Jan-20 18:00N 33°51' E 132°34'612.6
2018-Jan-20 17:30N 33°56' E 132°39'8810.2
2018-Jan-20 08:52N 34°22' E 134°21'411.0
2018-Jan-20 08:30N 34°21' E 134°25'611.1
2018-Jan-20 08:00N 34°19' E 134°31'711.0
2018-Jan-20 07:20N 34°15' E 134°39'4 9.5
2018-Jan-20 06:52N 34°12' E 134°42'4 9.9
2018-Jan-20 06:30N 34°11' E 134°47'611.4
2018-Jan-20 06:00N 34°12' E 134°53'611.2
2018-Jan-20 05:30N 34°13' E 134°60'510.8
2018-Jan-20 05:00N 34°14' E 135°06'1 1.5
2018-Jan-20 04:30N 34°15' E 135°07'0 0.0
2018-Jan-20 04:00N 34°15' E 135°07'0 0.0
2018-Jan-20 03:30N 34°15' E 135°07'0 0.0
2018-Jan-20 03:00N 34°15' E 135°07'0 0.0
2018-Jan-20 02:30N 34°15' E 135°07'0 0.0
2018-Jan-20 02:00N 34°15' E 135°07'0 0.0
2018-Jan-20 01:30N 34°15' E 135°07'0 0.0
2018-Jan-20 01:00N 34°15' E 135°07'0 0.0
2018-Jan-20 00:30N 34°15' E 135°07'0 0.0
2018-Jan-20 00:00N 34°15' E 135°07'0 0.0
2018-Jan-19 23:30N 34°15' E 135°07'0 0.0
2018-Jan-19 23:00N 34°15' E 135°07'0 0.0
2018-Jan-19 22:30N 34°15' E 135°07'0 0.0
2018-Jan-19 22:01N 34°15' E 135°07'2 3.0
2018-Jan-19 21:30N 34°15' E 135°05'0 0.2
2018-Jan-19 21:00N 34°15' E 135°05'0 0.0
2018-Jan-19 20:30N 34°15' E 135°05'0 0.0
2018-Jan-19 20:00N 34°15' E 135°05'0 0.0
2018-Jan-19 19:31N 34°15' E 135°05'0 0.0
2018-Jan-19 19:00N 34°15' E 135°05'0 0.0
2018-Jan-19 18:30N 34°15' E 135°05'0 0.0
2018-Jan-19 18:00N 34°15' E 135°05'0 0.0
2018-Jan-19 17:30N 34°15' E 135°05'0 0.0
2018-Jan-19 17:00N 34°15' E 135°05'1 2.6
2018-Jan-19 16:30N 34°14' E 135°05'510.6
2018-Jan-19 16:00N 34°09' E 135°02'510.4
2018-Jan-19 15:30N 34°04' E 135°02'510.7
2018-Jan-19 15:00N 33°58' E 135°02'610.5
2018-Jan-19 14:27N 33°52' E 135°02'179 8.9
2018-Jan-18 18:13N 34°34' E 138°33'510.8
2018-Jan-18 17:47N 34°35' E 138°38'310.5
2018-Jan-18 17:30N 34°35' E 138°42'610.4
2018-Jan-18 16:57N 34°35' E 138°49'5 9.6
2018-Jan-18 16:26N 34°35' E 138°55'4 9.1
2018-Jan-18 15:57N 34°37' E 138°60'4 9.5
2018-Jan-18 15:30N 34°41' E 139°02'610.2
2018-Jan-18 14:54N 34°46' E 139°06'810.0
2018-Jan-18 14:08N 34°52' E 139°12'210.9
2018-Jan-18 14:00N 34°53' E 139°13'710.7
2018-Jan-18 13:23N 34°57' E 139°20'410.1
2018-Jan-18 13:00N 34°59' E 139°24'5 9.7
2018-Jan-18 12:30N 35°01' E 139°29'5 9.8
2018-Jan-18 12:00N 35°04' E 139°34'510.5
2018-Jan-18 11:30N 35°06' E 139°40'510.6
2018-Jan-18 11:00N 35°10' E 139°44'611.2
2018-Jan-18 10:30N 35°15' E 139°46'611.9
2018-Jan-18 10:00N 35°21' E 139°42'510.4
2018-Jan-18 09:31N 35°25' E 139°45'5 9.8
2018-Jan-18 09:01N 35°24' E 139°51'0 0.0
2018-Jan-18 08:30N 35°24' E 139°51'0 0.1
2018-Jan-18 08:00N 35°24' E 139°51'0 0.0
2018-Jan-18 07:30N 35°24' E 139°51'0 0.0
2018-Jan-18 07:00N 35°24' E 139°51'0 0.0
2018-Jan-18 06:30N 35°24' E 139°51'0 0.0
2018-Jan-18 06:00N 35°24' E 139°51'0 0.0
2018-Jan-18 05:30N 35°24' E 139°51'0 0.0
2018-Jan-18 05:00N 35°24' E 139°51'0 0.0
2018-Jan-18 04:30N 35°24' E 139°51'0 0.1
2018-Jan-18 04:00N 35°24' E 139°51'0 0.0
2018-Jan-18 03:30N 35°24' E 139°51'0 0.0
2018-Jan-18 03:01N 35°24' E 139°51'0 0.0
2018-Jan-18 02:31N 35°24' E 139°51'0 0.1
2018-Jan-18 02:00N 35°24' E 139°51'0 0.0
2018-Jan-18 01:30N 35°24' E 139°51'0 0.0
2018-Jan-18 01:00N 35°24' E 139°51'0 0.0
2018-Jan-18 00:00N 35°24' E 139°51'0 0.0
2018-Jan-17 23:57N 35°24' E 139°51'  
2018-Jan-12 14:37N 34°01' E 132°46'110.1
2018-Jan-12 14:30N 34°00' E 132°45'5 9.9
2018-Jan-12 14:00N 33°56' E 132°41'5 9.9
2018-Jan-12 13:29N 33°53' E 132°37'4010.8
2018-Jan-12 09:48N 33°28' E 131°60'411.2
2018-Jan-12 09:28N 33°26' E 131°56'511.4
2018-Jan-12 09:00N 33°23' E 131°51'611.3
2018-Jan-12 08:30N 33°20' E 131°45'510.8
2018-Jan-12 08:00N 33°17' E 131°39'  

Dump ship's entire track history